Terminal Aerodrome Forecast
Issued by NWS

Home | Current Version | Previous Version | Text Only | Print | Product List | Glossary On
Versions: 1 2 3 4 5 6 7 8 9 10 11 12
000
FTPA31 PHFO 302330
TAFHJH
TAF
PHJH 302330Z 3100/3124 05015G23KT P6SM SCT025 SCT050
     FM310700 05010KT P6SM VCSH SCT020 BKN045
     FM312000 05014G22KT P6SM SCT025 SCT050=

USA.gov is the U.S. government's official web portal to all federal, state and local government web resources and services.